sensor_id;sensor_type;location;lat;lon;timestamp;pressure;altitude;pressure_sealevel;temperature;humidity
34961;BME280;30789;52.030;7.110;2023-08-06T00:01:14;99793.34;;;14.95;94.08
34961;BME280;30789;52.030;7.110;2023-08-06T00:03:41;99798.00;;;14.98;93.99
34961;BME280;30789;52.030;7.110;2023-08-06T00:06:07;99803.56;;;14.98;94.35
34961;BME280;30789;52.030;7.110;2023-08-06T00:08:34;99809.31;;;14.91;93.96
34961;BME280;30789;52.030;7.110;2023-08-06T00:11:00;99812.94;;;14.88;93.97
34961;BME280;30789;52.030;7.110;2023-08-06T00:13:27;99811.63;;;14.92;94.11
34961;BME280;30789;52.030;7.110;2023-08-06T00:15:55;99816.06;;;14.90;94.45
34961;BME280;30789;52.030;7.110;2023-08-06T00:18:21;99806.53;;;14.91;94.80
34961;BME280;30789;52.030;7.110;2023-08-06T00:20:48;99808.50;;;14.90;94.37
34961;BME280;30789;52.030;7.110;2023-08-06T00:23:14;99808.78;;;14.80;93.41
34961;BME280;30789;52.030;7.110;2023-08-06T00:25:40;99807.41;;;14.88;94.37
34961;BME280;30789;52.030;7.110;2023-08-06T00:28:07;99807.91;;;14.83;93.75
34961;BME280;30789;52.030;7.110;2023-08-06T00:30:33;99803.84;;;14.87;93.89
34961;BME280;30789;52.030;7.110;2023-08-06T00:33:01;99801.41;;;14.89;94.32
34961;BME280;30789;52.030;7.110;2023-08-06T00:35:29;99803.06;;;14.87;94.19
34961;BME280;30789;52.030;7.110;2023-08-06T00:37:56;99800.22;;;14.74;93.63
34961;BME280;30789;52.030;7.110;2023-08-06T00:40:22;99799.22;;;14.81;93.97
34961;BME280;30789;52.030;7.110;2023-08-06T00:42:49;99794.41;;;14.85;94.24
34961;BME280;30789;52.030;7.110;2023-08-06T00:45:16;99793.09;;;14.89;93.86
34961;BME280;30789;52.030;7.110;2023-08-06T00:47:42;99791.19;;;14.86;93.57
34961;BME280;30789;52.030;7.110;2023-08-06T00:50:11;99787.91;;;14.91;94.53
34961;BME280;30789;52.030;7.110;2023-08-06T00:52:37;99791.78;;;14.94;93.53
34961;BME280;30789;52.030;7.110;2023-08-06T00:55:05;99785.72;;;14.83;93.77
34961;BME280;30789;52.030;7.110;2023-08-06T00:57:32;99786.59;;;14.96;93.90
34961;BME280;30789;52.030;7.110;2023-08-06T00:59:59;99776.81;;;14.91;93.49
34961;BME280;30789;52.030;7.110;2023-08-06T01:02:25;99781.91;;;14.93;94.02
34961;BME280;30789;52.030;7.110;2023-08-06T01:04:52;99785.13;;;14.91;93.58
34961;BME280;30789;52.030;7.110;2023-08-06T01:07:31;99784.25;;;14.94;93.77
34961;BME280;30789;52.030;7.110;2023-08-06T01:10:14;99782.00;;;14.89;94.42
34961;BME280;30789;52.030;7.110;2023-08-06T01:12:50;99772.72;;;14.96;93.86
34961;BME280;30789;52.030;7.110;2023-08-06T01:15:21;99782.22;;;14.95;94.11
34961;BME280;30789;52.030;7.110;2023-08-06T01:17:48;99777.91;;;14.94;94.31
34961;BME280;30789;52.030;7.110;2023-08-06T01:20:15;99771.84;;;14.99;94.24
34961;BME280;30789;52.030;7.110;2023-08-06T01:22:42;99775.72;;;15.01;93.62
34961;BME280;30789;52.030;7.110;2023-08-06T01:25:09;99767.16;;;14.96;93.87
34961;BME280;30789;52.030;7.110;2023-08-06T01:27:41;99777.56;;;14.92;94.10
34961;BME280;30789;52.030;7.110;2023-08-06T01:30:13;99769.16;;;14.95;94.01
34961;BME280;30789;52.030;7.110;2023-08-06T01:32:43;99769.16;;;14.95;93.76
34961;BME280;30789;52.030;7.110;2023-08-06T01:35:12;99771.56;;;14.93;93.63
34961;BME280;30789;52.030;7.110;2023-08-06T01:37:40;99770.63;;;15.00;93.99
34961;BME280;30789;52.030;7.110;2023-08-06T01:40:11;99768.19;;;15.02;94.59
34961;BME280;30789;52.030;7.110;2023-08-06T01:42:39;99756.75;;;15.00;94.69
34961;BME280;30789;52.030;7.110;2023-08-06T01:45:06;99755.53;;;15.01;94.71
34961;BME280;30789;52.030;7.110;2023-08-06T01:47:33;99746.66;;;15.06;94.32
34961;BME280;30789;52.030;7.110;2023-08-06T01:49:59;99747.97;;;15.01;94.92
34961;BME280;30789;52.030;7.110;2023-08-06T01:52:26;99742.09;;;14.99;95.19
34961;BME280;30789;52.030;7.110;2023-08-06T01:54:53;99752.50;;;14.95;95.17
34961;BME280;30789;52.030;7.110;2023-08-06T01:57:21;99746.28;;;14.91;95.66
34961;BME280;30789;52.030;7.110;2023-08-06T01:59:47;99746.81;;;14.86;95.75
34961;BME280;30789;52.030;7.110;2023-08-06T02:02:14;99740.81;;;14.88;95.98
34961;BME280;30789;52.030;7.110;2023-08-06T02:04:40;99742.88;;;14.84;95.57
34961;BME280;30789;52.030;7.110;2023-08-06T02:07:07;99741.34;;;14.83;95.63
34961;BME280;30789;52.030;7.110;2023-08-06T02:09:33;99745.34;;;14.82;95.93
34961;BME280;30789;52.030;7.110;2023-08-06T02:12:00;99728.69;;;14.82;96.22
34961;BME280;30789;52.030;7.110;2023-08-06T02:14:29;99727.47;;;14.83;95.53
34961;BME280;30789;52.030;7.110;2023-08-06T02:16:55;99724.03;;;14.79;96.16
34961;BME280;30789;52.030;7.110;2023-08-06T02:19:22;99729.28;;;14.73;95.79
34961;BME280;30789;52.030;7.110;2023-08-06T02:21:48;99729.50;;;14.66;96.18
34961;BME280;30789;52.030;7.110;2023-08-06T02:24:15;99726.88;;;14.59;95.88
34961;BME280;30789;52.030;7.110;2023-08-06T02:26:40;99721.97;;;14.51;96.19
34961;BME280;30789;52.030;7.110;2023-08-06T02:29:06;99714.06;;;14.49;96.82
34961;BME280;30789;52.030;7.110;2023-08-06T02:31:34;99716.75;;;14.53;97.04
34961;BME280;30789;52.030;7.110;2023-08-06T02:34:01;99714.00;;;14.53;97.24
34961;BME280;30789;52.030;7.110;2023-08-06T02:36:27;99709.91;;;14.57;96.61
34961;BME280;30789;52.030;7.110;2023-08-06T02:38:54;99714.16;;;14.62;96.43
34961;BME280;30789;52.030;7.110;2023-08-06T02:41:21;99708.53;;;14.65;95.97
34961;BME280;30789;52.030;7.110;2023-08-06T02:43:47;99703.06;;;14.62;96.54
34961;BME280;30789;52.030;7.110;2023-08-06T02:46:14;99703.84;;;14.62;96.16
34961;BME280;30789;52.030;7.110;2023-08-06T02:48:42;99701.75;;;14.66;95.78
34961;BME280;30789;52.030;7.110;2023-08-06T02:51:08;99698.97;;;14.66;96.00
34961;BME280;30789;52.030;7.110;2023-08-06T02:53:34;99692.56;;;14.69;96.11
34961;BME280;30789;52.030;7.110;2023-08-06T02:56:01;99692.31;;;14.64;96.03
34961;BME280;30789;52.030;7.110;2023-08-06T02:58:27;99694.75;;;14.62;96.19
34961;BME280;30789;52.030;7.110;2023-08-06T03:01:01;99694.91;;;14.55;95.76
34961;BME280;30789;52.030;7.110;2023-08-06T03:03:28;99694.47;;;14.56;95.38
34961;BME280;30789;52.030;7.110;2023-08-06T03:05:56;99688.50;;;14.58;96.04
34961;BME280;30789;52.030;7.110;2023-08-06T03:08:23;99693.72;;;14.56;96.00
34961;BME280;30789;52.030;7.110;2023-08-06T03:10:50;99685.28;;;14.59;95.94
34961;BME280;30789;52.030;7.110;2023-08-06T03:13:16;99690.44;;;14.61;95.86
34961;BME280;30789;52.030;7.110;2023-08-06T03:15:43;99688.50;;;14.58;96.10
34961;BME280;30789;52.030;7.110;2023-08-06T03:18:10;99688.06;;;14.59;96.08
34961;BME280;30789;52.030;7.110;2023-08-06T03:20:36;99689.28;;;14.58;96.46
34961;BME280;30789;52.030;7.110;2023-08-06T03:23:04;99691.53;;;14.63;95.85
34961;BME280;30789;52.030;7.110;2023-08-06T03:25:30;99686.22;;;14.69;95.61
34961;BME280;30789;52.030;7.110;2023-08-06T03:27:57;99690.16;;;14.71;95.35
34961;BME280;30789;52.030;7.110;2023-08-06T03:30:23;99684.47;;;14.75;95.90
34961;BME280;30789;52.030;7.110;2023-08-06T03:32:50;99690.91;;;14.72;95.11
34961;BME280;30789;52.030;7.110;2023-08-06T03:35:16;99697.91;;;14.76;95.88
34961;BME280;30789;52.030;7.110;2023-08-06T03:37:43;99697.91;;;14.76;96.06
34961;BME280;30789;52.030;7.110;2023-08-06T03:40:11;99688.03;;;14.75;96.78
34961;BME280;30789;52.030;7.110;2023-08-06T03:42:38;99690.72;;;14.79;97.07
34961;BME280;30789;52.030;7.110;2023-08-06T03:45:05;99678.94;;;14.75;96.79
34961;BME280;30789;52.030;7.110;2023-08-06T03:47:32;99684.31;;;14.82;96.75
34961;BME280;30789;52.030;7.110;2023-08-06T03:49:58;99684.03;;;14.76;96.90
34961;BME280;30789;52.030;7.110;2023-08-06T03:52:25;99678.25;;;14.71;96.56
34961;BME280;30789;52.030;7.110;2023-08-06T03:54:51;99680.38;;;14.67;97.30
34961;BME280;30789;52.030;7.110;2023-08-06T03:57:19;99678.47;;;14.64;96.97
34961;BME280;30789;52.030;7.110;2023-08-06T03:59:46;99674.91;;;14.63;97.02
34961;BME280;30789;52.030;7.110;2023-08-06T04:02:12;99675.78;;;14.60;96.88
34961;BME280;30789;52.030;7.110;2023-08-06T04:04:39;99673.34;;;14.62;97.36
34961;BME280;30789;52.030;7.110;2023-08-06T04:07:05;99676.13;;;14.62;97.16
34961;BME280;30789;52.030;7.110;2023-08-06T04:09:32;99674.53;;;14.61;96.61
34961;BME280;30789;52.030;7.110;2023-08-06T04:11:58;99667.44;;;14.60;96.75
34961;BME280;30789;52.030;7.110;2023-08-06T04:14:28;99667.38;;;14.64;96.56
34961;BME280;30789;52.030;7.110;2023-08-06T04:16:54;99668.25;;;14.61;96.44
34961;BME280;30789;52.030;7.110;2023-08-06T04:19:21;99674.19;;;14.59;96.64
34961;BME280;30789;52.030;7.110;2023-08-06T04:21:47;99680.88;;;14.62;96.54
34961;BME280;30789;52.030;7.110;2023-08-06T04:24:13;99673.78;;;14.61;96.84
34961;BME280;30789;52.030;7.110;2023-08-06T04:26:40;99661.81;;;14.64;97.36
34961;BME280;30789;52.030;7.110;2023-08-06T04:29:07;99667.69;;;14.66;97.29
34961;BME280;30789;52.030;7.110;2023-08-06T04:31:34;99674.25;;;14.72;96.88
34961;BME280;30789;52.030;7.110;2023-08-06T04:34:01;99670.19;;;14.76;96.75
34961;BME280;30789;52.030;7.110;2023-08-06T04:36:27;99668.19;;;14.77;96.12
34961;BME280;30789;52.030;7.110;2023-08-06T04:38:54;99666.88;;;14.81;96.38
34961;BME280;30789;52.030;7.110;2023-08-06T04:41:20;99666.88;;;14.81;96.24
34961;BME280;30789;52.030;7.110;2023-08-06T04:43:47;99670.44;;;14.82;95.55
34961;BME280;30789;52.030;7.110;2023-08-06T04:46:13;99667.47;;;14.89;95.24
34961;BME280;30789;52.030;7.110;2023-08-06T04:48:41;99672.13;;;14.92;95.17
34961;BME280;30789;52.030;7.110;2023-08-06T04:51:07;99667.28;;;14.96;94.46
34961;BME280;30789;52.030;7.110;2023-08-06T04:53:34;99669.94;;;14.99;94.83
34961;BME280;30789;52.030;7.110;2023-08-06T04:56:01;99673.50;;;15.00;95.47
34961;BME280;30789;52.030;7.110;2023-08-06T04:58:27;99671.69;;;14.93;95.86
34961;BME280;30789;52.030;7.110;2023-08-06T05:00:53;99673.72;;;14.93;95.33
34961;BME280;30789;52.030;7.110;2023-08-06T05:03:20;99671.69;;;14.93;95.08
34961;BME280;30789;52.030;7.110;2023-08-06T05:05:48;99673.72;;;14.93;95.44
34961;BME280;30789;52.030;7.110;2023-08-06T05:08:15;99673.84;;;15.02;95.35
34961;BME280;30789;52.030;7.110;2023-08-06T05:10:43;99678.84;;;15.07;94.75
34961;BME280;30789;52.030;7.110;2023-08-06T05:13:10;99681.09;;;15.12;94.49
34961;BME280;30789;52.030;7.110;2023-08-06T05:15:36;99681.34;;;15.17;93.87
34961;BME280;30789;52.030;7.110;2023-08-06T05:18:04;99680.91;;;15.19;93.54
34961;BME280;30789;52.030;7.110;2023-08-06T05:20:31;99678.34;;;15.24;93.66
34961;BME280;30789;52.030;7.110;2023-08-06T05:23:03;99679.59;;;15.23;93.64
34961;BME280;30789;52.030;7.110;2023-08-06T05:25:29;99678.03;;;15.35;93.16
34961;BME280;30789;52.030;7.110;2023-08-06T05:27:56;99678.41;;;15.37;92.54
34961;BME280;30789;52.030;7.110;2023-08-06T05:30:23;99674.94;;;15.33;93.12
34961;BME280;30789;52.030;7.110;2023-08-06T05:32:49;99689.22;;;15.48;92.57
34961;BME280;30789;52.030;7.110;2023-08-06T05:35:16;99685.34;;;15.58;93.24
34961;BME280;30789;52.030;7.110;2023-08-06T05:37:42;99693.91;;;15.63;91.95
34961;BME280;30789;52.030;7.110;2023-08-06T05:40:13;99699.59;;;15.72;91.30
34961;BME280;30789;52.030;7.110;2023-08-06T05:42:39;99695.81;;;15.66;90.94
34961;BME280;30789;52.030;7.110;2023-08-06T05:45:07;99704.59;;;15.77;91.41
34961;BME280;30789;52.030;7.110;2023-08-06T05:47:36;99701.38;;;15.79;92.08
34961;BME280;30789;52.030;7.110;2023-08-06T05:50:03;99704.81;;;15.83;91.90
34961;BME280;30789;52.030;7.110;2023-08-06T05:52:30;99702.59;;;15.90;91.52
34961;BME280;30789;52.030;7.110;2023-08-06T05:54:56;99703.69;;;15.93;92.06
34961;BME280;30789;52.030;7.110;2023-08-06T05:57:24;99707.06;;;16.00;91.83
34961;BME280;30789;52.030;7.110;2023-08-06T05:59:51;99704.50;;;16.06;91.25
34961;BME280;30789;52.030;7.110;2023-08-06T06:02:17;99698.03;;;16.09;91.01
34961;BME280;30789;52.030;7.110;2023-08-06T06:04:44;99705.59;;;16.08;90.96
34961;BME280;30789;52.030;7.110;2023-08-06T06:07:10;99703.81;;;16.14;90.49
34961;BME280;30789;52.030;7.110;2023-08-06T06:09:37;99707.03;;;16.25;90.91
34961;BME280;30789;52.030;7.110;2023-08-06T06:12:05;99712.94;;;16.27;90.46
34961;BME280;30789;52.030;7.110;2023-08-06T06:14:33;99710.81;;;16.31;89.18
34961;BME280;30789;52.030;7.110;2023-08-06T06:17:00;99705.84;;;16.26;89.37
34961;BME280;30789;52.030;7.110;2023-08-06T06:19:26;99709.16;;;16.34;89.76
34961;BME280;30789;52.030;7.110;2023-08-06T06:21:53;99701.91;;;16.36;88.46
34961;BME280;30789;52.030;7.110;2023-08-06T06:24:22;99706.59;;;16.39;89.05
34961;BME280;30789;52.030;7.110;2023-08-06T06:26:49;99714.94;;;16.39;89.46
34961;BME280;30789;52.030;7.110;2023-08-06T06:29:15;99707.16;;;16.47;88.76
34961;BME280;30789;52.030;7.110;2023-08-06T06:31:43;99711.47;;;16.60;88.70
34961;BME280;30789;52.030;7.110;2023-08-06T06:34:10;99712.06;;;16.55;88.17
34961;BME280;30789;52.030;7.110;2023-08-06T06:36:36;99718.72;;;16.58;87.47
34961;BME280;30789;52.030;7.110;2023-08-06T06:39:03;99717.25;;;16.66;88.23
34961;BME280;30789;52.030;7.110;2023-08-06T06:41:29;99716.66;;;16.71;87.68
34961;BME280;30789;52.030;7.110;2023-08-06T06:43:58;99721.63;;;16.88;86.86
34961;BME280;30789;52.030;7.110;2023-08-06T06:46:24;99724.59;;;16.94;87.08
34961;BME280;30789;52.030;7.110;2023-08-06T06:48:52;99718.31;;;17.15;86.13
34961;BME280;30789;52.030;7.110;2023-08-06T06:51:18;99728.53;;;17.18;85.67
34961;BME280;30789;52.030;7.110;2023-08-06T06:53:45;99724.84;;;17.21;85.60
34961;BME280;30789;52.030;7.110;2023-08-06T06:56:11;99723.84;;;17.49;84.30
34961;BME280;30789;52.030;7.110;2023-08-06T06:58:38;99720.06;;;17.43;85.17
34961;BME280;30789;52.030;7.110;2023-08-06T07:01:06;99737.84;;;17.58;84.13
34961;BME280;30789;52.030;7.110;2023-08-06T07:03:32;99729.25;;;17.74;84.34
34961;BME280;30789;52.030;7.110;2023-08-06T07:06:00;99728.47;;;18.04;83.03
34961;BME280;30789;52.030;7.110;2023-08-06T07:08:27;99729.66;;;17.85;83.70
34961;BME280;30789;52.030;7.110;2023-08-06T07:10:59;99734.34;;;17.97;81.28
34961;BME280;30789;52.030;7.110;2023-08-06T07:13:27;99728.84;;;17.85;82.67
34961;BME280;30789;52.030;7.110;2023-08-06T07:15:54;99730.94;;;17.93;81.99
34961;BME280;30789;52.030;7.110;2023-08-06T07:18:20;99728.78;;;17.97;82.16
34961;BME280;30789;52.030;7.110;2023-08-06T07:20:48;99729.25;;;17.74;80.17
34961;BME280;30789;52.030;7.110;2023-08-06T07:23:16;99737.00;;;17.70;80.80
34961;BME280;30789;52.030;7.110;2023-08-06T07:25:42;99730.50;;;17.73;81.27
34961;BME280;30789;52.030;7.110;2023-08-06T07:28:09;99735.94;;;17.77;82.88
34961;BME280;30789;52.030;7.110;2023-08-06T07:30:38;99742.28;;;18.08;82.66
34961;BME280;30789;52.030;7.110;2023-08-06T07:33:04;99742.38;;;17.95;82.67
34961;BME280;30789;52.030;7.110;2023-08-06T07:35:31;99743.78;;;18.30;81.59
34961;BME280;30789;52.030;7.110;2023-08-06T07:37:58;99741.03;;;17.78;82.43
34961;BME280;30789;52.030;7.110;2023-08-06T07:40:27;99747.28;;;17.82;82.24
34961;BME280;30789;52.030;7.110;2023-08-06T07:42:54;99747.16;;;17.86;82.03
34961;BME280;30789;52.030;7.110;2023-08-06T07:45:20;99747.78;;;17.90;82.40
34961;BME280;30789;52.030;7.110;2023-08-06T07:47:47;99758.59;;;17.88;82.71
34961;BME280;30789;52.030;7.110;2023-08-06T07:50:13;99746.06;;;17.62;81.25
34961;BME280;30789;52.030;7.110;2023-08-06T07:52:40;99749.50;;;17.44;82.34
34961;BME280;30789;52.030;7.110;2023-08-06T07:55:07;99750.16;;;17.48;83.57
34961;BME280;30789;52.030;7.110;2023-08-06T07:57:35;99761.00;;;17.34;84.05
34961;BME280;30789;52.030;7.110;2023-08-06T08:00:04;99757.44;;;17.33;84.65
34961;BME280;30789;52.030;7.110;2023-08-06T08:02:31;99758.47;;;17.27;83.94
34961;BME280;30789;52.030;7.110;2023-08-06T08:04:57;99756.69;;;17.20;83.83
34961;BME280;30789;52.030;7.110;2023-08-06T08:07:23;99762.19;;;17.11;84.85
34961;BME280;30789;52.030;7.110;2023-08-06T08:09:52;99764.56;;;17.34;85.23
34961;BME280;30789;52.030;7.110;2023-08-06T08:12:19;99760.72;;;17.19;84.43
34961;BME280;30789;52.030;7.110;2023-08-06T08:14:47;99762.34;;;17.29;84.68
34961;BME280;30789;52.030;7.110;2023-08-06T08:17:13;99761.66;;;17.38;84.09
34961;BME280;30789;52.030;7.110;2023-08-06T08:19:40;99760.06;;;17.49;84.51
34961;BME280;30789;52.030;7.110;2023-08-06T08:22:07;99765.44;;;17.44;83.65
34961;BME280;30789;52.030;7.110;2023-08-06T08:24:33;99755.72;;;17.48;82.25
34961;BME280;30789;52.030;7.110;2023-08-06T08:27:00;99754.47;;;17.71;81.82
34961;BME280;30789;52.030;7.110;2023-08-06T08:29:26;99755.28;;;18.02;81.64
34961;BME280;30789;52.030;7.110;2023-08-06T08:31:54;99763.47;;;18.27;80.63
34961;BME280;30789;52.030;7.110;2023-08-06T08:34:21;99765.50;;;18.35;78.93
34961;BME280;30789;52.030;7.110;2023-08-06T08:36:47;99765.59;;;18.53;77.51
34961;BME280;30789;52.030;7.110;2023-08-06T08:39:15;99765.94;;;18.64;78.30
34961;BME280;30789;52.030;7.110;2023-08-06T08:41:42;99760.25;;;18.95;76.75
34961;BME280;30789;52.030;7.110;2023-08-06T08:44:10;99759.19;;;19.02;75.73
34961;BME280;30789;52.030;7.110;2023-08-06T08:46:38;99763.84;;;19.05;76.87
34961;BME280;30789;52.030;7.110;2023-08-06T08:49:06;99745.69;;;19.09;76.24
34961;BME280;30789;52.030;7.110;2023-08-06T08:51:33;99756.56;;;19.25;76.66
34961;BME280;30789;52.030;7.110;2023-08-06T08:54:02;99766.03;;;19.10;75.79
34961;BME280;30789;52.030;7.110;2023-08-06T08:56:29;99760.91;;;18.99;76.60
34961;BME280;30789;52.030;7.110;2023-08-06T08:58:56;99754.06;;;19.00;77.16
34961;BME280;30789;52.030;7.110;2023-08-06T09:01:22;99763.22;;;19.10;76.37
34961;BME280;30789;52.030;7.110;2023-08-06T09:03:51;99761.66;;;19.18;75.72
34961;BME280;30789;52.030;7.110;2023-08-06T09:06:21;99771.03;;;19.42;75.42
34961;BME280;30789;52.030;7.110;2023-08-06T09:08:51;99766.97;;;19.16;75.15
34961;BME280;30789;52.030;7.110;2023-08-06T09:11:20;99768.06;;;19.27;74.95
34961;BME280;30789;52.030;7.110;2023-08-06T09:13:47;99776.44;;;19.72;73.54
34961;BME280;30789;52.030;7.110;2023-08-06T09:16:14;99772.56;;;19.61;74.10
34961;BME280;30789;52.030;7.110;2023-08-06T09:18:40;99771.16;;;19.74;75.27
34961;BME280;30789;52.030;7.110;2023-08-06T09:21:13;99773.63;;;19.81;72.01
34961;BME280;30789;52.030;7.110;2023-08-06T09:23:41;99781.09;;;19.75;73.04
34961;BME280;30789;52.030;7.110;2023-08-06T09:26:11;99778.25;;;19.93;72.46
34961;BME280;30789;52.030;7.110;2023-08-06T09:28:38;99777.63;;;19.98;73.06
34961;BME280;30789;52.030;7.110;2023-08-06T09:31:07;99770.69;;;19.76;74.19
34961;BME280;30789;52.030;7.110;2023-08-06T09:33:36;99778.25;;;19.93;74.42
34961;BME280;30789;52.030;7.110;2023-08-06T09:36:07;99771.66;;;20.23;72.50
34961;BME280;30789;52.030;7.110;2023-08-06T09:38:37;99783.69;;;19.97;73.33
34961;BME280;30789;52.030;7.110;2023-08-06T09:41:06;99777.63;;;19.98;71.88
34961;BME280;30789;52.030;7.110;2023-08-06T09:43:39;99783.19;;;20.07;71.79
34961;BME280;30789;52.030;7.110;2023-08-06T09:46:11;99780.44;;;20.49;72.18
34961;BME280;30789;52.030;7.110;2023-08-06T09:48:38;99786.19;;;20.78;71.27
34961;BME280;30789;52.030;7.110;2023-08-06T09:51:08;99789.69;;;20.97;69.54
34961;BME280;30789;52.030;7.110;2023-08-06T09:53:37;99778.91;;;21.04;69.40
34961;BME280;30789;52.030;7.110;2023-08-06T09:56:05;99782.03;;;20.97;69.88
34961;BME280;30789;52.030;7.110;2023-08-06T09:58:32;99785.00;;;21.41;67.63
34961;BME280;30789;52.030;7.110;2023-08-06T10:01:00;99784.91;;;21.35;67.88
34961;BME280;30789;52.030;7.110;2023-08-06T10:03:29;99785.22;;;21.52;67.06
34961;BME280;30789;52.030;7.110;2023-08-06T10:05:55;99788.50;;;21.50;66.20
34961;BME280;30789;52.030;7.110;2023-08-06T10:08:22;99783.09;;;21.23;68.76
34961;BME280;30789;52.030;7.110;2023-08-06T10:10:49;99781.22;;;21.44;67.06
34961;BME280;30789;52.030;7.110;2023-08-06T10:13:19;99765.91;;;21.68;68.22
34961;BME280;30789;52.030;7.110;2023-08-06T10:15:48;99773.63;;;22.61;62.58
34961;BME280;30789;52.030;7.110;2023-08-06T10:18:15;99778.56;;;23.40;61.38
34961;BME280;30789;52.030;7.110;2023-08-06T10:20:46;99781.19;;;23.09;63.45
34961;BME280;30789;52.030;7.110;2023-08-06T10:23:13;99773.41;;;23.59;61.88
34961;BME280;30789;52.030;7.110;2023-08-06T10:25:41;99773.19;;;23.88;59.20
34961;BME280;30789;52.030;7.110;2023-08-06T10:28:08;99774.09;;;25.09;57.42
34961;BME280;30789;52.030;7.110;2023-08-06T10:30:43;99777.75;;;26.62;52.06
34961;BME280;30789;52.030;7.110;2023-08-06T10:33:10;99777.66;;;27.69;49.07
34961;BME280;30789;52.030;7.110;2023-08-06T10:35:40;99775.81;;;27.77;48.08
34961;BME280;30789;52.030;7.110;2023-08-06T10:38:10;99776.09;;;27.22;50.41
34961;BME280;30789;52.030;7.110;2023-08-06T10:40:48;99784.63;;;28.14;47.04
34961;BME280;30789;52.030;7.110;2023-08-06T10:43:25;99780.34;;;28.62;47.82
34961;BME280;30789;52.030;7.110;2023-08-06T10:45:53;99782.13;;;26.86;51.92
34961;BME280;30789;52.030;7.110;2023-08-06T10:48:29;99773.66;;;26.47;50.94
34961;BME280;30789;52.030;7.110;2023-08-06T10:50:56;99767.66;;;24.98;54.89
34961;BME280;30789;52.030;7.110;2023-08-06T10:53:22;99763.22;;;24.49;56.16
34961;BME280;30789;52.030;7.110;2023-08-06T10:55:49;99770.09;;;24.12;57.11
34961;BME280;30789;52.030;7.110;2023-08-06T10:58:15;99768.00;;;23.35;58.91
34961;BME280;30789;52.030;7.110;2023-08-06T11:00:42;99770.88;;;22.81;61.24
34961;BME280;30789;52.030;7.110;2023-08-06T11:03:10;99771.84;;;22.29;63.25
34961;BME280;30789;52.030;7.110;2023-08-06T11:05:37;99771.84;;;22.14;61.89
34961;BME280;30789;52.030;7.110;2023-08-06T11:08:04;99775.91;;;21.84;63.53
34961;BME280;30789;52.030;7.110;2023-08-06T11:10:33;99768.66;;;21.54;63.42
34961;BME280;30789;52.030;7.110;2023-08-06T11:13:00;99768.16;;;21.03;66.36
34961;BME280;30789;52.030;7.110;2023-08-06T11:15:27;99773.28;;;21.04;66.24
34961;BME280;30789;52.030;7.110;2023-08-06T11:17:54;99763.53;;;21.00;64.41
34961;BME280;30789;52.030;7.110;2023-08-06T11:20:22;99765.63;;;20.81;65.82
34961;BME280;30789;52.030;7.110;2023-08-06T11:22:50;99758.69;;;21.00;64.86
34961;BME280;30789;52.030;7.110;2023-08-06T11:25:20;99770.44;;;20.81;67.19
34961;BME280;30789;52.030;7.110;2023-08-06T11:27:47;99761.03;;;20.69;67.64
34961;BME280;30789;52.030;7.110;2023-08-06T11:30:14;99764.06;;;20.80;66.69
34961;BME280;30789;52.030;7.110;2023-08-06T11:32:47;99770.22;;;20.93;66.13
34961;BME280;30789;52.030;7.110;2023-08-06T11:35:15;99765.81;;;20.78;67.53
34961;BME280;30789;52.030;7.110;2023-08-06T11:37:45;99763.03;;;21.01;66.90
34961;BME280;30789;52.030;7.110;2023-08-06T11:40:14;99765.47;;;21.32;64.66
34961;BME280;30789;52.030;7.110;2023-08-06T11:42:41;99755.34;;;21.49;64.23
34961;BME280;30789;52.030;7.110;2023-08-06T11:45:08;99753.91;;;21.53;62.71
34961;BME280;30789;52.030;7.110;2023-08-06T11:47:38;99751.88;;;21.68;63.66
34961;BME280;30789;52.030;7.110;2023-08-06T11:50:06;99760.63;;;22.00;63.00
34961;BME280;30789;52.030;7.110;2023-08-06T11:52:32;99755.69;;;21.94;63.05
34961;BME280;30789;52.030;7.110;2023-08-06T11:55:02;99761.38;;;22.15;62.91
34961;BME280;30789;52.030;7.110;2023-08-06T11:57:31;99755.75;;;21.71;64.29
34961;BME280;30789;52.030;7.110;2023-08-06T12:00:02;99756.34;;;22.33;61.90
34961;BME280;30789;52.030;7.110;2023-08-06T12:02:32;99753.47;;;22.62;61.11
34961;BME280;30789;52.030;7.110;2023-08-06T12:05:03;99759.03;;;22.77;59.34
34961;BME280;30789;52.030;7.110;2023-08-06T12:07:31;99761.25;;;22.53;61.83
34961;BME280;30789;52.030;7.110;2023-08-06T12:09:59;99757.50;;;22.27;61.57
34961;BME280;30789;52.030;7.110;2023-08-06T12:12:28;99759.25;;;22.10;61.93
34961;BME280;30789;52.030;7.110;2023-08-06T12:14:55;99757.59;;;22.03;63.71
34961;BME280;30789;52.030;7.110;2023-08-06T12:17:22;99756.56;;;22.01;63.31
34961;BME280;30789;52.030;7.110;2023-08-06T12:19:49;99757.31;;;21.72;64.47
34961;BME280;30789;52.030;7.110;2023-08-06T12:22:15;99755.81;;;21.47;66.04
34961;BME280;30789;52.030;7.110;2023-08-06T12:24:43;99757.53;;;21.45;66.29
34961;BME280;30789;52.030;7.110;2023-08-06T12:27:10;99766.22;;;20.85;69.77
34961;BME280;30789;52.030;7.110;2023-08-06T12:29:40;99765.31;;;20.79;71.13
34961;BME280;30789;52.030;7.110;2023-08-06T12:32:07;99767.34;;;20.55;71.13
34961;BME280;30789;52.030;7.110;2023-08-06T12:34:33;99766.31;;;20.34;72.84
34961;BME280;30789;52.030;7.110;2023-08-06T12:37:02;99769.78;;;20.29;73.35
34961;BME280;30789;52.030;7.110;2023-08-06T12:39:28;99769.47;;;20.27;72.20
34961;BME280;30789;52.030;7.110;2023-08-06T12:41:56;99772.78;;;20.08;74.65
34961;BME280;30789;52.030;7.110;2023-08-06T12:44:23;99768.28;;;20.01;74.73
34961;BME280;30789;52.030;7.110;2023-08-06T12:46:52;99771.41;;;20.03;74.04
34961;BME280;30789;52.030;7.110;2023-08-06T12:49:19;99767.22;;;19.90;74.53
34961;BME280;30789;52.030;7.110;2023-08-06T12:51:46;99773.59;;;19.90;74.54
34961;BME280;30789;52.030;7.110;2023-08-06T12:54:13;99777.06;;;19.67;77.60
34961;BME280;30789;52.030;7.110;2023-08-06T12:59:18;99776.59;;;19.69;76.19
34961;BME280;30789;52.030;7.110;2023-08-06T13:01:45;99786.84;;;19.54;77.71
34961;BME280;30789;52.030;7.110;2023-08-06T13:04:14;99783.91;;;19.48;75.96